createdAt,value
2023-08-01T00:00:06.420Z,18.23
2023-08-01T00:02:32.899Z,18.19
2023-08-01T00:04:59.342Z,18.16
2023-08-01T00:07:28.791Z,18.16
2023-08-01T00:09:55.297Z,18.16
2023-08-01T00:12:21.930Z,18.18
2023-08-01T00:14:48.432Z,18.11
2023-08-01T00:17:14.953Z,18.15
2023-08-01T00:19:41.434Z,18.12
2023-08-01T00:22:07.839Z,18.14
2023-08-01T00:24:34.457Z,18.12
2023-08-01T00:27:00.905Z,18.15
2023-08-01T00:29:27.318Z,18.13
2023-08-01T00:31:53.808Z,18.09
2023-08-01T00:34:20.328Z,18.10
2023-08-01T00:36:46.812Z,18.07
2023-08-01T00:39:13.224Z,18.08
2023-08-01T00:41:39.788Z,18.10
2023-08-01T00:44:06.275Z,18.10
2023-08-01T00:46:33.736Z,18.09
2023-08-01T00:49:01.362Z,18.07
2023-08-01T00:51:28.745Z,18.07
2023-08-01T00:53:55.331Z,18.05
2023-08-01T00:56:21.961Z,18.07
2023-08-01T00:58:48.428Z,18.08
2023-08-01T01:01:15.398Z,18.06
2023-08-01T01:03:41.997Z,18.05
2023-08-01T01:06:16.714Z,18.00
2023-08-01T01:08:43.221Z,18.05
2023-08-01T01:11:09.627Z,18.00
2023-08-01T01:13:36.234Z,18.04
2023-08-01T01:16:02.856Z,17.97
2023-08-01T01:18:29.375Z,17.99
2023-08-01T01:20:55.877Z,18.02
2023-08-01T01:23:23.253Z,18.00
2023-08-01T01:25:52.168Z,17.97
2023-08-01T01:28:20.155Z,18.00
2023-08-01T01:30:47.060Z,18.01
2023-08-01T01:33:14.041Z,18.02
2023-08-01T01:35:40.428Z,18.01
2023-08-01T01:38:06.983Z,17.97
2023-08-01T01:40:34.458Z,17.97
2023-08-01T01:43:01.926Z,18.01
2023-08-01T01:45:28.652Z,17.94
2023-08-01T01:47:55.223Z,17.94
2023-08-01T01:50:21.717Z,17.94
2023-08-01T01:52:48.261Z,17.89
2023-08-01T01:55:15.253Z,17.97
2023-08-01T01:57:41.726Z,17.95
2023-08-01T02:00:11.559Z,17.94
2023-08-01T02:02:38.053Z,17.95
2023-08-01T02:05:07.727Z,17.94
2023-08-01T02:07:34.875Z,17.91
2023-08-01T02:10:02.202Z,17.92
2023-08-01T02:12:32.460Z,17.93
2023-08-01T02:14:59.705Z,17.88
2023-08-01T02:17:26.411Z,17.90
2023-08-01T02:19:52.909Z,17.88
2023-08-01T02:22:19.449Z,17.86
2023-08-01T02:24:45.891Z,17.88
2023-08-01T02:27:12.317Z,17.87
2023-08-01T02:29:38.834Z,17.85
2023-08-01T02:32:05.743Z,17.81
2023-08-01T02:34:32.235Z,17.84
2023-08-01T02:36:58.690Z,17.85
2023-08-01T02:39:25.091Z,17.85
2023-08-01T02:41:51.495Z,17.83
2023-08-01T02:44:17.912Z,17.79
2023-08-01T02:46:44.291Z,17.83
2023-08-01T02:49:10.741Z,17.85
2023-08-01T02:51:37.169Z,17.82
2023-08-01T02:54:03.584Z,17.83
2023-08-01T02:56:29.974Z,17.83
2023-08-01T02:58:56.885Z,17.81
2023-08-01T03:01:23.585Z,17.83
2023-08-01T03:03:50.169Z,17.79
2023-08-01T03:06:16.912Z,17.78
2023-08-01T03:08:43.901Z,17.78
2023-08-01T03:11:10.633Z,17.80
2023-08-01T03:13:37.205Z,17.76
2023-08-01T03:16:05.487Z,17.76
2023-08-01T03:18:32.076Z,17.78
2023-08-01T03:20:58.532Z,17.79
2023-08-01T03:23:24.977Z,17.79
2023-08-01T03:25:51.423Z,17.76
2023-08-01T03:28:17.901Z,17.73
2023-08-01T03:30:44.427Z,17.73
2023-08-01T03:33:10.924Z,17.75
2023-08-01T03:35:37.433Z,17.79
2023-08-01T03:38:03.890Z,17.79
2023-08-01T03:40:30.338Z,17.77
2023-08-01T03:42:56.786Z,17.79
2023-08-01T03:45:23.182Z,17.81
2023-08-01T03:47:49.678Z,17.81
2023-08-01T03:50:16.315Z,17.83
2023-08-01T03:52:42.759Z,17.82
2023-08-01T03:55:09.377Z,17.82
2023-08-01T03:57:35.839Z,17.84
2023-08-01T04:00:02.222Z,17.85
2023-08-01T04:02:29.058Z,17.85
2023-08-01T04:04:55.502Z,17.84
2023-08-01T04:07:21.918Z,17.82
2023-08-01T04:09:48.329Z,17.84
2023-08-01T04:12:14.765Z,17.82
2023-08-01T04:14:41.470Z,17.78
2023-08-01T04:17:07.866Z,17.81
2023-08-01T04:19:34.263Z,17.83
2023-08-01T04:22:00.685Z,17.76
2023-08-01T04:24:28.620Z,17.81
2023-08-01T04:26:55.104Z,17.79
2023-08-01T04:29:21.541Z,17.76
2023-08-01T04:31:47.957Z,17.82
2023-08-01T04:34:14.597Z,17.84
2023-08-01T04:36:41.213Z,17.83
2023-08-01T04:39:07.933Z,17.82
2023-08-01T04:41:34.366Z,17.81
2023-08-01T04:44:00.850Z,17.83
2023-08-01T04:46:27.660Z,17.83
2023-08-01T04:48:54.186Z,17.81
2023-08-01T04:51:20.651Z,17.84
2023-08-01T04:53:47.034Z,17.81
2023-08-01T04:56:13.454Z,17.83
2023-08-01T04:58:39.863Z,17.83
2023-08-01T05:01:06.332Z,17.85
2023-08-01T05:03:32.835Z,17.83
2023-08-01T05:05:59.327Z,17.86
2023-08-01T05:08:25.826Z,17.85
2023-08-01T05:10:52.258Z,17.86
2023-08-01T05:13:19.821Z,17.86
2023-08-01T05:15:50.423Z,17.88
2023-08-01T05:18:18.070Z,17.90
2023-08-01T05:20:44.595Z,17.88
2023-08-01T05:23:11.214Z,17.91
2023-08-01T05:25:37.618Z,17.92
2023-08-01T05:28:04.295Z,17.94
2023-08-01T05:30:30.811Z,17.94
2023-08-01T05:32:57.272Z,17.96
2023-08-01T05:35:23.718Z,17.97
2023-08-01T05:37:50.096Z,18.01
2023-08-01T05:40:16.503Z,18.01
2023-08-01T05:42:42.879Z,18.04
2023-08-01T05:45:09.836Z,18.02
2023-08-01T05:47:37.892Z,18.05
2023-08-01T05:50:04.670Z,18.07
2023-08-01T05:52:31.344Z,18.05
2023-08-01T05:54:57.759Z,18.08
2023-08-01T05:57:24.483Z,18.12
2023-08-01T05:59:50.930Z,18.15
2023-08-01T06:02:17.613Z,18.18
2023-08-01T06:04:44.209Z,18.17
2023-08-01T06:07:10.747Z,18.16
2023-08-01T06:09:37.259Z,18.21
2023-08-01T06:12:03.973Z,18.19
2023-08-01T06:14:30.386Z,18.22
2023-08-01T06:16:56.925Z,18.19
2023-08-01T06:19:23.449Z,18.26
2023-08-01T06:21:49.940Z,18.24
2023-08-01T06:24:16.476Z,18.20
2023-08-01T06:26:43.378Z,18.28
2023-08-01T06:29:09.982Z,18.25
2023-08-01T06:31:36.631Z,18.24
2023-08-01T06:34:03.157Z,18.27
2023-08-01T06:36:29.590Z,18.24
2023-08-01T06:38:56.044Z,18.26
2023-08-01T06:41:22.503Z,18.17
2023-08-01T06:43:48.894Z,18.21
2023-08-01T06:46:15.357Z,18.23
2023-08-01T06:48:41.875Z,18.21
2023-08-01T06:51:08.263Z,18.20
2023-08-01T06:53:34.697Z,18.22
2023-08-01T06:56:01.129Z,18.23
2023-08-01T06:58:27.505Z,18.18
2023-08-01T07:00:53.954Z,18.19
2023-08-01T07:03:20.463Z,18.22
2023-08-01T07:05:47.003Z,18.24
2023-08-01T07:08:13.448Z,18.19
2023-08-01T07:10:40.289Z,18.22
2023-08-01T07:13:06.725Z,18.23
2023-08-01T07:15:34.087Z,18.22
2023-08-01T07:18:01.261Z,18.27
2023-08-01T07:20:27.803Z,18.23
2023-08-01T07:22:54.250Z,18.23
2023-08-01T07:25:20.922Z,18.28
2023-08-01T07:27:47.619Z,18.26
2023-08-01T07:30:14.235Z,18.30
2023-08-01T07:32:40.923Z,18.30
2023-08-01T07:35:07.919Z,18.36
2023-08-01T07:37:35.001Z,18.36
2023-08-01T07:40:01.478Z,18.41
2023-08-01T07:42:27.935Z,18.45
2023-08-01T07:44:55.120Z,18.49
2023-08-01T07:47:21.577Z,18.54
2023-08-01T07:49:48.090Z,18.49
2023-08-01T07:52:14.565Z,18.60
2023-08-01T07:54:41.092Z,18.63
2023-08-01T07:57:07.708Z,18.66
2023-08-01T07:59:34.180Z,18.69
2023-08-01T08:02:01.111Z,18.72
2023-08-01T08:04:27.653Z,18.73
2023-08-01T08:06:56.028Z,18.77
2023-08-01T08:09:23.843Z,18.78
2023-08-01T08:11:51.963Z,18.82
2023-08-01T08:14:18.426Z,18.74
2023-08-01T08:16:45.272Z,18.80
2023-08-01T08:19:12.027Z,18.78
2023-08-01T08:21:38.449Z,18.78
2023-08-01T08:24:05.190Z,18.80
2023-08-01T08:26:32.313Z,18.77
2023-08-01T08:28:59.148Z,18.78
2023-08-01T08:31:25.657Z,18.80
2023-08-01T08:33:52.108Z,18.80
2023-08-01T08:36:18.580Z,18.75
2023-08-01T08:38:45.023Z,18.76
2023-08-01T08:41:14.822Z,18.74
2023-08-01T08:43:42.667Z,18.75
2023-08-01T08:46:10.333Z,18.72
2023-08-01T08:48:38.161Z,18.69
2023-08-01T08:51:07.091Z,18.71
2023-08-01T08:53:34.043Z,18.66
2023-08-01T08:56:01.873Z,18.66
2023-08-01T09:00:56.670Z,18.60
2023-08-01T09:03:23.137Z,18.64
2023-08-01T09:05:51.622Z,18.63
2023-08-01T09:08:22.788Z,18.66
2023-08-01T09:10:49.497Z,18.62
2023-08-01T09:13:16.120Z,18.64
2023-08-01T09:15:46.318Z,18.65
2023-08-01T09:18:12.804Z,18.66
2023-08-01T09:20:49.391Z,18.64
2023-08-01T09:23:17.873Z,18.67
2023-08-01T09:25:45.236Z,18.66
2023-08-01T09:28:22.770Z,18.69
2023-08-01T09:30:51.315Z,18.62
2023-08-01T09:33:18.318Z,18.64
2023-08-01T09:35:46.739Z,18.59
2023-08-01T09:38:15.432Z,18.60
2023-08-01T09:40:42.727Z,18.62
2023-08-01T09:43:10.664Z,18.64
2023-08-01T09:45:37.355Z,18.64
2023-08-01T09:48:04.214Z,18.53
2023-08-01T09:50:30.710Z,18.58
2023-08-01T09:53:07.467Z,18.58
2023-08-01T09:55:34.520Z,18.56
2023-08-01T09:58:01.381Z,18.46
2023-08-01T10:00:29.210Z,18.55
2023-08-01T10:03:01.160Z,18.50
2023-08-01T10:05:35.194Z,18.12
2023-08-01T10:08:03.808Z,18.39
2023-08-01T10:10:30.778Z,18.22
2023-08-01T10:13:02.397Z,18.15
2023-08-01T10:15:30.519Z,18.07
2023-08-01T10:17:58.277Z,18.17
2023-08-01T10:20:25.441Z,18.13
2023-08-01T10:22:52.877Z,18.26
2023-08-01T10:25:20.553Z,18.26
2023-08-01T10:27:46.960Z,18.27
2023-08-01T10:30:13.517Z,18.14
2023-08-01T10:32:41.775Z,18.10
2023-08-01T10:35:08.794Z,18.18
2023-08-01T10:37:44.894Z,18.18
2023-08-01T10:40:14.145Z,18.20
2023-08-01T10:42:46.367Z,18.20
2023-08-01T10:45:24.393Z,18.18
2023-08-01T10:47:52.021Z,18.18
2023-08-01T10:50:19.477Z,18.24
2023-08-01T10:52:47.324Z,18.29
2023-08-01T10:55:14.070Z,18.30
2023-08-01T10:57:49.724Z,18.32
2023-08-01T11:00:18.668Z,18.39
2023-08-01T11:02:51.454Z,18.39
2023-08-01T11:05:19.272Z,18.44
2023-08-01T11:07:56.296Z,18.34
2023-08-01T11:10:22.919Z,18.40
2023-08-01T11:12:49.458Z,18.53
2023-08-01T11:15:17.115Z,18.61
2023-08-01T11:17:48.164Z,18.47
2023-08-01T11:20:15.248Z,18.56
2023-08-01T11:23:06.068Z,18.55
2023-08-01T11:25:41.225Z,18.59
2023-08-01T11:28:13.041Z,18.52
2023-08-01T11:30:39.541Z,18.54
2023-08-01T11:33:22.979Z,18.49
2023-08-01T11:36:00.430Z,18.50
2023-08-01T11:38:30.607Z,18.38
2023-08-01T11:41:01.961Z,18.56
2023-08-01T11:43:40.062Z,18.63
2023-08-01T11:46:07.235Z,18.56
2023-08-01T11:48:33.939Z,18.42
2023-08-01T11:51:01.551Z,18.48
2023-08-01T11:53:29.425Z,18.40
2023-08-01T11:55:57.822Z,18.55
2023-08-01T11:58:31.319Z,18.65
2023-08-01T12:01:10.571Z,18.52
2023-08-01T12:03:51.258Z,18.68
2023-08-01T12:06:20.830Z,18.79
2023-08-01T12:08:48.514Z,18.69
2023-08-01T12:11:33.054Z,18.93
2023-08-01T12:14:11.387Z,18.95
2023-08-01T12:16:39.304Z,18.93
2023-08-01T12:19:06.291Z,19.00
2023-08-01T12:21:33.876Z,18.94
2023-08-01T12:24:00.618Z,18.89
2023-08-01T12:26:27.180Z,19.07
2023-08-01T12:28:53.809Z,19.09
2023-08-01T12:31:21.354Z,19.24
2023-08-01T12:33:48.673Z,19.34
2023-08-01T12:36:15.954Z,19.40
2023-08-01T12:38:42.586Z,19.44
2023-08-01T12:41:09.512Z,19.49
2023-08-01T12:43:36.077Z,19.53
2023-08-01T12:46:02.618Z,19.56
2023-08-01T12:48:29.556Z,19.59
2023-08-01T12:50:56.340Z,19.63
2023-08-01T12:53:23.474Z,19.69
2023-08-01T12:55:52.210Z,19.75
2023-08-01T12:58:19.447Z,19.76
2023-08-01T13:00:46.484Z,19.78
2023-08-01T13:03:13.276Z,19.77
2023-08-01T13:05:41.690Z,19.78
2023-08-01T13:08:08.981Z,19.71
2023-08-01T13:10:37.207Z,19.71
2023-08-01T13:13:03.670Z,19.77
2023-08-01T13:15:30.967Z,19.83
2023-08-01T13:17:57.971Z,19.80
2023-08-01T13:20:24.549Z,19.93
2023-08-01T13:22:52.480Z,19.94
2023-08-01T13:25:20.037Z,19.94
2023-08-01T13:27:46.485Z,19.88
2023-08-01T13:30:15.511Z,19.92
2023-08-01T13:32:42.341Z,19.77
2023-08-01T13:35:09.034Z,19.82
2023-08-01T13:37:36.344Z,19.66
2023-08-01T13:40:03.649Z,19.58
2023-08-01T13:42:30.280Z,19.62
2023-08-01T13:44:56.749Z,19.62
2023-08-01T13:47:23.366Z,19.62
2023-08-01T13:49:49.996Z,19.65
2023-08-01T13:52:16.470Z,19.63
2023-08-01T13:54:42.919Z,19.62
2023-08-01T13:57:09.388Z,19.57
2023-08-01T13:59:37.633Z,19.62
2023-08-01T14:02:04.629Z,19.52
2023-08-01T14:04:31.102Z,19.61
2023-08-01T14:06:57.739Z,19.49
2023-08-01T14:09:27.267Z,19.50
2023-08-01T14:11:53.667Z,19.44
2023-08-01T14:14:20.075Z,19.46
2023-08-01T14:16:46.623Z,19.53
2023-08-01T14:19:13.182Z,19.47
2023-08-01T14:21:39.588Z,19.49
2023-08-01T14:24:06.093Z,19.52
2023-08-01T14:26:32.499Z,19.51
2023-08-01T14:28:58.935Z,19.47
2023-08-01T14:31:25.432Z,19.50
2023-08-01T14:33:51.869Z,19.54
2023-08-01T14:36:18.614Z,19.31
2023-08-01T14:38:45.113Z,19.35
2023-08-01T14:41:22.720Z,19.24
2023-08-01T14:43:57.952Z,19.19
2023-08-01T14:46:24.438Z,18.86
2023-08-01T14:48:50.884Z,18.96
2023-08-01T14:51:17.402Z,18.87
2023-08-01T14:53:43.847Z,18.88
2023-08-01T14:56:10.291Z,18.70
2023-08-01T14:58:40.338Z,18.59
2023-08-01T15:01:13.329Z,18.64
2023-08-01T15:03:39.732Z,18.61
2023-08-01T15:06:08.202Z,18.64
2023-08-01T15:08:35.230Z,18.59
2023-08-01T15:11:09.471Z,18.56
2023-08-01T15:13:36.021Z,18.58
2023-08-01T15:16:03.138Z,18.52
2023-08-01T15:18:29.724Z,18.47
2023-08-01T15:20:56.584Z,18.50
2023-08-01T15:23:23.123Z,18.58
2023-08-01T15:25:57.114Z,18.55
2023-08-01T15:28:24.409Z,18.61
2023-08-01T15:30:51.462Z,18.63
2023-08-01T15:33:17.988Z,18.71
2023-08-01T15:35:44.576Z,18.67
2023-08-01T15:38:11.458Z,18.57
2023-08-01T15:40:37.990Z,18.69
2023-08-01T15:43:04.384Z,18.79
2023-08-01T15:45:30.830Z,18.79
2023-08-01T15:47:57.494Z,18.83
2023-08-01T15:50:23.951Z,18.78
2023-08-01T15:52:50.346Z,18.87
2023-08-01T15:55:16.896Z,18.86
2023-08-01T15:57:44.563Z,18.84
2023-08-01T16:00:12.709Z,18.84
2023-08-01T16:02:39.378Z,18.76
2023-08-01T16:05:06.689Z,18.92
2023-08-01T16:07:33.239Z,18.79
2023-08-01T16:09:59.679Z,18.74
2023-08-01T16:12:26.094Z,18.95
2023-08-01T16:14:52.637Z,18.92
2023-08-01T16:17:19.178Z,18.77
2023-08-01T16:19:45.667Z,18.71
2023-08-01T16:22:12.210Z,18.73
2023-08-01T16:24:38.655Z,18.68
2023-08-01T16:27:05.591Z,18.70
2023-08-01T16:29:32.039Z,18.78
2023-08-01T16:31:58.613Z,18.77
2023-08-01T16:34:25.083Z,18.75
2023-08-01T16:36:51.551Z,18.65
2023-08-01T16:39:18.019Z,18.74
2023-08-01T16:41:44.570Z,18.82
2023-08-01T16:44:11.078Z,18.82
2023-08-01T16:46:37.575Z,18.74
2023-08-01T16:49:17.580Z,18.67
2023-08-01T16:51:49.164Z,18.66
2023-08-01T16:54:16.334Z,18.53
2023-08-01T16:56:43.071Z,18.69
2023-08-01T16:59:09.915Z,18.72
2023-08-01T17:01:36.394Z,18.71
2023-08-01T17:04:04.492Z,18.70
2023-08-01T17:06:31.477Z,18.61
2023-08-01T17:08:57.997Z,18.71
2023-08-01T17:11:24.426Z,18.77
2023-08-01T17:13:50.955Z,18.74
2023-08-01T17:16:17.381Z,18.67
2023-08-01T17:18:43.821Z,18.72
2023-08-01T17:21:10.469Z,18.75
2023-08-01T17:23:36.860Z,18.72
2023-08-01T17:26:03.475Z,18.63
2023-08-01T17:28:29.920Z,18.65
2023-08-01T17:30:56.524Z,18.65
2023-08-01T17:33:23.242Z,18.74
2023-08-01T17:35:49.849Z,18.81
2023-08-01T17:38:16.270Z,18.87
2023-08-01T17:40:46.090Z,18.88
2023-08-01T17:43:12.913Z,18.75
2023-08-01T17:45:39.408Z,18.71
2023-08-01T17:48:05.981Z,18.77
2023-08-01T17:50:32.611Z,18.74
2023-08-01T17:52:59.088Z,18.75
2023-08-01T17:55:25.561Z,18.66
2023-08-01T17:57:52.050Z,18.58
2023-08-01T18:00:20.588Z,18.68
2023-08-01T18:02:47.152Z,18.64
2023-08-01T18:05:13.753Z,18.68
2023-08-01T18:07:40.686Z,18.65
2023-08-01T18:10:07.735Z,18.62
2023-08-01T18:12:34.549Z,18.58
2023-08-01T18:15:00.967Z,18.61
2023-08-01T18:17:27.409Z,18.60
2023-08-01T18:19:53.947Z,18.63
2023-08-01T18:22:20.359Z,18.59
2023-08-01T18:24:46.797Z,18.58
2023-08-01T18:27:13.237Z,18.58
2023-08-01T18:29:39.669Z,18.55
2023-08-01T18:32:06.405Z,18.56
2023-08-01T18:34:35.551Z,18.54
2023-08-01T18:37:02.151Z,18.45
2023-08-01T18:39:28.580Z,18.49
2023-08-01T18:41:55.590Z,18.49
2023-08-01T18:44:22.124Z,18.44
2023-08-01T18:46:49.822Z,18.43
2023-08-01T18:49:16.610Z,18.38
2023-08-01T18:51:43.077Z,18.36
2023-08-01T18:54:09.623Z,18.35
2023-08-01T18:56:36.071Z,18.24
2023-08-01T18:59:02.489Z,18.27
2023-08-01T19:01:29.965Z,18.27
2023-08-01T19:03:57.617Z,18.23
2023-08-01T19:06:26.276Z,18.19
2023-08-01T19:09:02.121Z,18.20
2023-08-01T19:11:36.299Z,18.06
2023-08-01T19:14:02.824Z,18.13
2023-08-01T19:16:30.988Z,18.13
2023-08-01T19:18:57.728Z,18.09
2023-08-01T19:21:24.165Z,18.01
2023-08-01T19:23:50.553Z,18.04
2023-08-01T19:26:17.575Z,18.05
2023-08-01T19:28:46.232Z,18.04
2023-08-01T19:31:13.444Z,17.99
2023-08-01T19:33:39.923Z,17.92
2023-08-01T19:36:06.372Z,17.95
2023-08-01T19:38:32.812Z,17.89
2023-08-01T19:41:02.670Z,17.91
2023-08-01T19:43:30.685Z,17.92
2023-08-01T19:45:57.856Z,17.91
2023-08-01T19:48:24.390Z,17.89
2023-08-01T19:50:55.094Z,17.89
2023-08-01T19:53:24.800Z,17.87
2023-08-01T19:55:52.343Z,17.87
2023-08-01T19:58:18.846Z,17.78
2023-08-01T20:00:46.012Z,17.71
2023-08-01T20:03:12.653Z,17.73
2023-08-01T20:05:39.292Z,17.79
2023-08-01T20:08:05.798Z,17.79
2023-08-01T20:10:32.234Z,17.73
2023-08-01T20:12:58.596Z,17.74
2023-08-01T20:15:25.023Z,17.75
2023-08-01T20:17:51.583Z,17.73
2023-08-01T20:20:18.824Z,17.70
2023-08-01T20:22:45.361Z,17.74
2023-08-01T20:25:12.079Z,17.75
2023-08-01T20:27:38.578Z,17.72
2023-08-01T20:30:05.601Z,17.73
2023-08-01T20:32:32.077Z,17.68
2023-08-01T20:34:58.592Z,17.65
2023-08-01T20:37:25.046Z,17.65
2023-08-01T20:39:51.468Z,17.58
2023-08-01T20:42:18.836Z,17.57
2023-08-01T20:44:45.265Z,17.59
2023-08-01T20:47:11.693Z,17.49
2023-08-01T20:49:38.136Z,17.49
2023-08-01T20:52:04.956Z,17.54
2023-08-01T20:54:31.462Z,17.54
2023-08-01T20:56:58.837Z,17.55
2023-08-01T20:59:25.716Z,17.57
2023-08-01T21:01:52.153Z,17.55
2023-08-01T21:04:18.717Z,17.46
2023-08-01T21:06:45.615Z,17.35
2023-08-01T21:09:12.324Z,17.33
2023-08-01T21:11:38.799Z,17.34
2023-08-01T21:14:05.344Z,17.33
2023-08-01T21:16:31.814Z,17.43
2023-08-01T21:18:58.345Z,17.41
2023-08-01T21:21:25.883Z,17.40
2023-08-01T21:23:52.827Z,17.33
2023-08-01T21:26:19.560Z,17.29
2023-08-01T21:28:46.050Z,17.32
2023-08-01T21:31:13.709Z,17.32
2023-08-01T21:33:40.585Z,17.31
2023-08-01T21:36:07.073Z,17.26
2023-08-01T21:38:35.256Z,17.19
2023-08-01T21:41:01.945Z,17.07
2023-08-01T21:43:28.485Z,17.15
2023-08-01T21:46:00.296Z,17.05
2023-08-01T21:48:26.622Z,17.15
2023-08-01T21:50:53.121Z,17.15
2023-08-01T21:53:20.048Z,17.19
2023-08-01T21:55:47.555Z,17.16
2023-08-01T21:58:17.350Z,17.16
2023-08-01T22:00:45.335Z,17.17
2023-08-01T22:03:12.665Z,17.17
2023-08-01T22:05:40.092Z,17.17
2023-08-01T22:08:07.914Z,17.09
2023-08-01T22:10:34.897Z,17.09
2023-08-01T22:13:01.743Z,17.13
2023-08-01T22:15:29.699Z,17.12
2023-08-01T22:17:56.833Z,17.03
2023-08-01T22:20:23.641Z,17.07
2023-08-01T22:22:50.101Z,17.00
2023-08-01T22:25:16.636Z,17.05
2023-08-01T22:27:43.163Z,17.01
2023-08-01T22:30:10.727Z,16.87
2023-08-01T22:32:37.295Z,16.99
2023-08-01T22:35:04.313Z,16.99
2023-08-01T22:37:30.891Z,17.00
2023-08-01T22:39:57.449Z,16.97
2023-08-01T22:42:23.936Z,17.01
2023-08-01T22:44:50.322Z,17.04
2023-08-01T22:47:16.800Z,16.90
2023-08-01T22:49:54.720Z,16.96
2023-08-01T22:52:26.201Z,16.93
2023-08-01T22:54:52.711Z,16.92
2023-08-01T22:57:19.183Z,16.97
2023-08-01T22:59:45.646Z,16.99
2023-08-01T23:02:12.065Z,17.04
2023-08-01T23:04:38.490Z,17.02
2023-08-01T23:07:05.246Z,17.08
2023-08-01T23:09:31.697Z,17.01
2023-08-01T23:11:58.067Z,17.03
2023-08-01T23:14:24.449Z,17.03
2023-08-01T23:16:53.007Z,17.03
2023-08-01T23:19:19.609Z,17.03
2023-08-01T23:21:45.988Z,17.07
2023-08-01T23:24:12.441Z,17.04
2023-08-01T23:26:39.159Z,17.10
2023-08-01T23:29:05.886Z,17.08
2023-08-01T23:31:32.322Z,17.12
2023-08-01T23:33:58.743Z,17.08
2023-08-01T23:36:25.187Z,17.13
2023-08-01T23:38:51.684Z,17.03
2023-08-01T23:41:18.156Z,16.93
2023-08-01T23:43:44.560Z,17.09
2023-08-01T23:46:11.068Z,17.11
2023-08-01T23:48:37.517Z,17.16
2023-08-01T23:51:04.018Z,17.14
2023-08-01T23:53:30.490Z,17.13
2023-08-01T23:55:59.355Z,17.13
2023-08-01T23:58:29.940Z,17.06
